Time;durP1;ratioP1;P1;durP2;ratioP2;P2;SDS_P1;SDS_P2;PMS_P1;PMS_P2;Temp;Humidity;BMP_temperature;BMP_pressure;BME280_temperature;BME280_humidity;BME280_pressure;Samples;Min_cycle;Max_cycle;Signal;HPM_P1;HPM_P2
2021/03/24 00:02:18;;;;;;;46.03;32.20;;;;;;;3.94;79.39;99531.60;113840;1196;64412;-80
2021/03/24 00:04:45;;;;;;;42.65;28.00;;;;;;;3.94;79.51;99533.38;113867;1200;64429;-79
2021/03/24 00:07:12;;;;;;;42.17;29.10;;;;;;;3.94;79.31;99536.02;113819;1199;64416;-79
2021/03/24 00:09:38;;;;;;;43.50;28.77;;;;;;;3.94;79.34;99536.88;113848;1200;64355;-80
2021/03/24 00:12:06;;;;;;;46.05;30.25;;;;;;;3.96;79.18;99537.70;113892;1197;64365;-80
2021/03/24 00:14:34;;;;;;;49.97;35.77;;;;;;;3.96;79.29;99528.93;113897;1200;64497;-79
2021/03/24 00:17:00;;;;;;;49.40;35.70;;;;;;;3.95;79.04;99535.13;113840;1200;64531;-79
2021/03/24 00:19:27;;;;;;;44.33;31.97;;;;;;;3.94;79.39;99536.02;113677;1199;64388;-80
2021/03/24 00:21:53;;;;;;;49.60;29.60;;;;;;;3.93;79.29;99531.67;113865;1196;64369;-80
2021/03/24 00:24:20;;;;;;;36.83;26.30;;;;;;;3.93;79.06;99535.16;113677;1200;64324;-80
2021/03/24 00:26:47;;;;;;;42.80;27.07;;;;;;;3.94;78.86;99534.23;113804;1196;64538;-80
2021/03/24 00:29:13;;;;;;;36.10;25.53;;;;;;;3.95;78.87;99533.34;113841;1199;64445;-79
2021/03/24 00:31:40;;;;;;;41.77;27.40;;;;;;;3.96;79.19;99540.34;113852;1200;64436;-79
2021/03/24 00:34:07;;;;;;;39.40;26.87;;;;;;;3.95;78.85;99533.34;113872;1196;64362;-79
2021/03/24 00:36:34;;;;;;;39.43;26.83;;;;;;;3.93;78.96;99537.80;113814;1200;64391;-79
2021/03/24 00:39:00;;;;;;;36.90;25.40;;;;;;;3.90;79.04;99535.27;113667;1200;64459;-80
2021/03/24 00:41:27;;;;;;;40.70;26.30;;;;;;;3.89;78.91;99538.80;113841;1196;64381;-80
2021/03/24 00:43:53;;;;;;;38.37;24.43;;;;;;;3.89;79.47;99530.02;113808;1196;64449;-80
2021/03/24 00:46:20;;;;;;;37.35;24.75;;;;;;;3.89;78.85;99528.24;113846;1197;64375;-80
2021/03/24 00:48:46;;;;;;;38.67;25.17;;;;;;;3.90;79.09;99537.91;113843;1200;64407;-80
2021/03/24 00:51:13;;;;;;;40.40;27.67;;;;;;;3.88;78.95;99531.80;113866;1196;64529;-80
2021/03/24 00:53:39;;;;;;;44.57;26.80;;;;;;;3.87;79.00;99537.11;113856;1196;64614;-81
2021/03/24 00:56:06;;;;;;;45.00;27.63;;;;;;;3.85;78.79;99531.91;113941;1196;64356;-80
2021/03/24 00:58:32;;;;;;;41.40;24.13;;;;;;;3.85;79.07;99529.27;113916;1200;64375;-80
2021/03/24 01:00:59;;;;;;;35.73;23.33;;;;;;;3.84;79.03;99524.88;113863;1196;64464;-79
2021/03/24 01:03:26;;;;;;;34.67;23.57;;;;;;;3.85;78.85;99523.14;113912;1197;64503;-79
2021/03/24 01:05:53;;;;;;;34.80;23.73;;;;;;;3.86;78.90;99524.85;113727;1199;64481;-80
2021/03/24 01:08:22;;;;;;;39.75;26.90;;;;;;;3.86;78.89;99524.85;113725;1199;64352;-79
2021/03/24 01:10:51;;;;;;;39.70;25.43;;;;;;;3.84;79.13;99524.03;113899;1196;64468;-79
2021/03/24 01:13:19;;;;;;;38.93;24.87;;;;;;;3.81;78.68;99524.13;113872;1199;64356;-80
2021/03/24 01:15:46;;;;;;;35.47;24.73;;;;;;;3.81;79.00;99526.77;113828;1196;64433;-79
2021/03/24 01:18:13;;;;;;;39.03;23.43;;;;;;;3.81;78.98;99529.41;113877;1198;64448;-80
2021/03/24 01:20:42;;;;;;;35.45;23.05;;;;;;;3.83;79.11;99527.59;113858;1197;64394;-80
2021/03/24 01:23:09;;;;;;;33.05;24.30;;;;;;;3.84;78.78;99529.30;113894;1200;64401;-80
2021/03/24 01:25:37;;;;;;;33.63;23.10;;;;;;;3.83;78.95;99517.90;113607;1199;64346;-81
2021/03/24 01:28:07;;;;;;;35.83;23.87;;;;;;;3.80;79.00;99518.00;113877;1198;64516;-79
2021/03/24 01:30:35;;;;;;;47.37;27.43;;;;;;;3.78;79.10;99526.86;113669;1199;64491;-80
2021/03/24 01:33:02;;;;;;;36.15;25.25;;;;;;;3.75;78.92;99522.55;113820;1197;64372;-82
2021/03/24 01:35:29;;;;;;;34.23;23.07;;;;;;;3.76;79.04;99520.77;113785;1199;64363;-83
2021/03/24 01:37:56;;;;;;;41.15;26.00;;;;;;;3.77;79.11;99520.73;113936;1197;64874;-84
2021/03/24 01:40:28;;;;;;;36.10;24.83;;;;;;;3.80;79.05;99525.05;113926;1199;64343;-80
2021/03/24 01:42:58;;;;;;;38.13;26.30;;;;;;;3.83;79.02;99532.86;113942;1200;64362;-79
2021/03/24 01:45:24;;;;;;;41.35;28.38;;;;;;;3.80;78.98;99533.81;113968;1196;64372;-80
2021/03/24 01:47:54;;;;;;;39.65;28.70;;;;;;;3.79;79.11;99533.85;113987;1200;64369;-81
2021/03/24 01:50:38;;;;;;;41.23;28.17;;;;;;;3.78;79.21;99529.50;114005;1196;64516;-83
2021/03/24 01:53:05;;;;;;;36.20;25.70;;;;;;;3.79;79.32;99533.85;113751;1200;64394;-80
2021/03/24 01:55:31;;;;;;;40.77;26.60;;;;;;;3.79;79.13;99532.11;113998;1196;64381;-79
2021/03/24 01:57:59;;;;;;;36.13;26.03;;;;;;;3.83;79.17;99528.45;113847;1196;64420;-80
2021/03/24 02:00:43;;;;;;;39.10;29.43;;;;;;;3.87;79.06;99527.45;113867;1200;64294;-80
2021/03/24 02:03:10;;;;;;;38.80;28.97;;;;;;;3.84;79.28;99531.94;113601;1200;64397;-80
2021/03/24 02:05:37;;;;;;;36.27;28.73;;;;;;;3.79;79.72;99532.11;113570;1199;64458;-81
2021/03/24 02:08:26;;;;;;;38.35;27.65;;;;;;;3.79;79.67;99539.13;113856;1196;64803;-81
2021/03/24 02:11:21;;;;;;;40.43;27.93;;;;;;;3.77;79.65;99540.97;113922;1198;64349;-79
2021/03/24 02:14:14;;;;;;;34.80;24.13;;;;;;;3.76;79.51;99545.35;113909;1196;64464;-80
2021/03/24 02:16:48;;;;;;;35.43;25.47;;;;;;;3.81;79.67;99546.08;113921;1199;64380;-80
2021/03/24 02:19:31;;;;;;;42.63;31.57;;;;;;;3.82;79.71;99545.19;113991;1196;64362;-80
2021/03/24 02:22:00;;;;;;;43.33;31.50;;;;;;;3.84;79.40;99542.48;113699;1199;64497;-80
2021/03/24 02:24:51;;;;;;;49.67;33.20;;;;;;;3.83;79.47;99553.95;113709;1199;64395;-80
2021/03/24 02:27:22;;;;;;;44.20;30.50;;;;;;;3.82;79.28;99550.46;113906;1199;64471;-79
2021/03/24 02:30:06;;;;;;;44.90;29.97;;;;;;;3.82;79.33;99549.57;113904;1196;64401;-80
2021/03/24 02:32:37;;;;;;;40.50;26.90;;;;;;;3.82;79.11;99550.46;113725;1200;64526;-79
2021/03/24 02:35:11;;;;;;;50.55;31.80;;;;;;;3.83;79.19;99548.68;113982;1197;64372;-80
2021/03/24 02:37:40;;;;;;;56.57;36.27;;;;;;;3.82;79.32;99539.91;113738;1200;64432;-80
2021/03/24 02:40:12;;;;;;;50.37;34.47;;;;;;;3.85;79.18;99546.87;113932;1199;64333;-82
2021/03/24 02:42:41;;;;;;;42.10;27.85;;;;;;;3.81;79.31;99545.22;113914;1196;64400;-82
2021/03/24 02:45:10;;;;;;;44.00;29.40;;;;;;;3.81;79.31;99550.49;113944;1200;64356;-80
2021/03/24 02:47:38;;;;;;;40.20;28.17;;;;;;;3.80;79.27;99552.27;113885;1200;64346;-80
2021/03/24 02:50:07;;;;;;;44.07;28.30;;;;;;;3.82;79.09;99561.01;113824;1196;64365;-79
2021/03/24 02:52:35;;;;;;;44.23;30.40;;;;;;;3.82;79.21;99560.12;113696;1196;64439;-79
2021/03/24 02:55:03;;;;;;;47.23;33.07;;;;;;;3.82;79.24;99557.48;113881;1200;64483;-80
2021/03/24 02:57:30;;;;;;;40.10;27.57;;;;;;;3.81;78.97;99555.77;113879;1196;64458;-80
2021/03/24 02:59:56;;;;;;;41.70;29.00;;;;;;;3.80;78.96;99554.05;113635;1196;64420;-80
2021/03/24 03:02:27;;;;;;;36.80;24.40;;;;;;;3.82;78.97;99557.48;113925;1199;64410;-79
2021/03/24 03:05:04;;;;;;;33.67;25.07;;;;;;;3.81;78.97;99555.77;113850;1199;64401;-80
2021/03/24 03:07:37;;;;;;;32.07;25.30;;;;;;;3.81;78.92;99555.77;113940;1200;64336;-79
2021/03/24 03:10:09;;;;;;;38.05;28.10;;;;;;;3.80;79.05;99554.05;113870;1196;64520;-79
2021/03/24 03:12:53;;;;;;;36.03;24.63;;;;;;;3.79;79.26;99554.94;113883;1199;64452;-80
2021/03/24 03:15:28;;;;;;;30.90;23.60;;;;;;;3.79;79.08;99549.67;113838;1196;64350;-80
2021/03/24 03:18:04;;;;;;;35.20;23.53;;;;;;;3.78;79.12;99556.72;113973;1200;64436;-79
2021/03/24 03:20:40;;;;;;;39.07;27.30;;;;;;;3.78;79.23;99554.09;113874;1196;64346;-80
2021/03/24 03:23:11;;;;;;;46.20;30.10;;;;;;;3.76;79.66;99555.89;113635;1197;64510;-80
2021/03/24 03:25:41;;;;;;;51.43;30.13;;;;;;;3.76;79.34;99557.67;113877;1196;64519;-80
2021/03/24 03:28:13;;;;;;;;;;;;;;;3.75;79.18;99556.81;113751;1205;64314;-80
2021/03/24 03:30:46;;;;;;;51.30;30.73;;;;;;;3.76;79.36;99560.31;113951;1197;64407;-81
2021/03/24 03:33:14;;;;;;;50.30;28.35;;;;;;;3.75;79.15;99559.45;113675;1200;64449;-79
2021/03/24 03:35:41;;;;;;;49.60;29.97;;;;;;;3.77;79.28;99556.78;113806;1198;64427;-78
2021/03/24 03:38:19;;;;;;;57.07;33.03;;;;;;;3.74;79.24;99563.87;113675;1200;64384;-79
2021/03/24 03:40:47;;;;;;;44.10;26.60;;;;;;;3.74;79.37;99565.65;113817;1196;64458;-79
2021/03/24 03:43:17;;;;;;;45.57;26.73;;;;;;;3.72;79.56;99564.83;113848;1200;64298;-79
2021/03/24 03:45:47;;;;;;;50.33;28.77;;;;;;;3.72;79.80;99562.19;113832;1199;64454;-79
2021/03/24 03:48:18;;;;;;;54.03;31.43;;;;;;;3.73;79.69;99563.91;113845;1197;64701;-80
2021/03/24 03:50:47;;;;;;;51.10;33.10;;;;;;;3.73;79.43;99558.63;113684;1199;64500;-80
2021/03/24 03:53:23;;;;;;;53.43;33.65;;;;;;;3.70;79.47;99558.73;113883;1199;64414;-80
2021/03/24 03:55:59;;;;;;;48.50;30.50;;;;;;;3.69;79.39;99551.74;113825;1199;64397;-80
2021/03/24 03:58:37;;;;;;;42.00;26.10;;;;;;;3.69;79.50;99546.47;113884;1196;64457;-80
2021/03/24 04:01:19;;;;;;;40.70;26.85;;;;;;;3.69;79.55;99555.23;113818;1200;64426;-80
2021/03/24 04:03:58;;;;;;;39.43;25.40;;;;;;;3.67;79.71;99551.77;113828;1200;64414;-80
2021/03/24 04:06:48;;;;;;;40.90;30.15;;;;;;;3.67;79.84;99550.91;113869;1200;64302;-80
2021/03/24 04:09:15;;;;;;;;;;;;;;;3.67;79.69;99550.91;113935;1205;64372;-80
2021/03/24 04:11:49;;;;;;;50.00;31.90;;;;;;;3.66;79.58;99551.80;113901;1196;64452;-79
2021/03/24 04:14:21;;;;;;;39.90;29.27;;;;;;;3.65;79.44;99539.55;113673;1198;64413;-79
2021/03/24 04:16:48;;;;;;;39.60;26.10;;;;;;;3.65;79.58;99545.68;113967;1198;64863;-80
2021/03/24 04:19:18;;;;;;;36.10;25.20;;;;;;;3.67;79.46;99550.91;113928;1197;64305;-80
2021/03/24 04:21:50;;;;;;;34.10;24.00;;;;;;;3.70;79.52;99551.67;113890;1200;64321;-80
2021/03/24 04:24:28;;;;;;;43.77;29.97;;;;;;;3.69;79.44;99549.97;113893;1198;64363;-80
2021/03/24 04:27:00;;;;;;;41.87;31.47;;;;;;;3.70;79.42;99559.58;113915;1197;64302;-80
2021/03/24 04:29:41;;;;;;;43.67;29.37;;;;;;;3.70;79.29;99558.73;113704;1199;64507;-81
2021/03/24 04:32:08;;;;;;;38.77;26.97;;;;;;;3.71;79.73;99552.53;113952;1196;64342;-81
2021/03/24 04:34:36;;;;;;;39.43;25.90;;;;;;;3.71;79.25;99556.06;113889;1200;64475;-81
2021/03/24 04:37:28;;;;;;;38.57;26.03;;;;;;;3.73;79.31;99556.85;113938;1196;64349;-81
2021/03/24 04:40:00;;;;;;;41.30;28.30;;;;;;;3.77;79.01;99562.91;113857;1199;64397;-81
2021/03/24 04:42:50;;;;;;;39.43;29.30;;;;;;;3.79;79.23;99552.30;113872;1199;64429;-81
2021/03/24 04:45:46;;;;;;;39.10;29.73;;;;;;;3.80;79.10;99551.41;113818;1200;64331;-80
2021/03/24 04:48:28;;;;;;;37.03;26.13;;;;;;;3.77;79.26;99548.88;113913;1196;64391;-79
2021/03/24 04:51:00;;;;;;;35.93;25.00;;;;;;;3.77;78.99;99551.52;113886;1200;64388;-79
2021/03/24 04:53:31;;;;;;;37.50;25.30;;;;;;;3.76;78.79;99557.67;113837;1200;64944;-80
2021/03/24 04:56:00;;;;;;;35.30;25.70;;;;;;;3.75;78.80;99551.55;113843;1196;64433;-80
2021/03/24 04:58:34;;;;;;;43.90;29.33;;;;;;;3.75;78.92;99556.81;113839;1199;64848;-80
2021/03/24 05:01:14;;;;;;;45.33;33.60;;;;;;;3.77;78.99;99556.78;113886;1196;64379;-79
2021/03/24 05:03:44;;;;;;;43.47;30.50;;;;;;;3.78;78.87;99563.77;113675;1200;64320;-80
2021/03/24 05:06:22;;;;;;;44.33;27.30;;;;;;;3.77;78.80;99568.19;113845;1200;64385;-80
2021/03/24 05:08:49;;;;;;;39.50;25.43;;;;;;;3.78;78.81;99572.53;113847;1200;64464;-80
2021/03/24 05:11:26;;;;;;;37.00;26.05;;;;;;;3.78;78.70;99569.05;113841;1199;64436;-80
2021/03/24 05:14:04;;;;;;;39.90;25.23;;;;;;;3.79;78.62;99576.03;113927;1196;64922;-80
2021/03/24 05:16:38;;;;;;;40.67;29.10;;;;;;;3.81;79.00;99574.22;113807;1200;64369;-79
2021/03/24 05:19:05;;;;;;;41.83;29.93;;;;;;;3.84;78.63;99579.39;113847;1197;64520;-80
2021/03/24 05:21:35;;;;;;;38.97;28.57;;;;;;;3.83;78.48;99578.54;113696;1199;64493;-80
2021/03/24 05:24:02;;;;;;;36.83;26.53;;;;;;;3.84;78.40;99580.25;113718;1199;64381;-80
2021/03/24 05:26:38;;;;;;;41.00;26.40;;;;;;;3.86;78.36;99580.22;113714;1200;64382;-80
2021/03/24 05:29:13;;;;;;;37.07;24.17;;;;;;;3.88;78.17;99584.54;113929;1196;64356;-80
2021/03/24 05:31:45;;;;;;;39.35;27.10;;;;;;;3.89;78.31;99594.16;113877;1196;64507;-80
2021/03/24 05:34:17;;;;;;;40.85;30.90;;;;;;;3.90;78.43;99590.63;113916;1196;64818;-80
2021/03/24 05:36:47;;;;;;;42.90;31.03;;;;;;;3.93;78.17;99597.59;113892;1197;64446;-81
2021/03/24 05:39:30;;;;;;;40.95;29.60;;;;;;;3.94;78.17;99591.39;113943;1199;64755;-80
2021/03/24 05:41:59;;;;;;;38.80;26.20;;;;;;;3.96;78.28;99597.49;113707;1198;64783;-80
2021/03/24 05:44:34;;;;;;;36.47;25.27;;;;;;;3.98;78.25;99592.16;113917;1198;64372;-80
2021/03/24 05:47:26;;;;;;;40.60;27.27;;;;;;;4.01;78.17;99598.22;113957;1200;64349;-80
2021/03/24 05:50:23;;;;;;;38.97;28.70;;;;;;;4.03;78.17;99600.79;113845;1200;64394;-80
2021/03/24 05:53:07;;;;;;;46.73;31.10;;;;;;;4.04;78.10;99605.17;113918;1198;64375;-80
2021/03/24 05:56:09;;;;;;;39.97;28.33;;;;;;;4.03;78.01;99604.31;113707;1200;64448;-80
2021/03/24 05:58:57;;;;;;;35.80;24.05;;;;;;;4.03;78.00;99604.31;113788;1196;64525;-78
2021/03/24 06:01:36;;;;;;;35.93;26.17;;;;;;;4.07;78.06;99599.80;113831;1199;64420;-79
2021/03/24 06:04:33;;;;;;;37.15;24.90;;;;;;;4.07;78.05;99603.30;113820;1200;64353;-80
2021/03/24 06:07:38;;;;;;;40.65;28.35;;;;;;;4.11;77.96;99604.94;113861;1200;64413;-81
2021/03/24 06:10:31;;;;;;;39.57;25.47;;;;;;;4.11;77.92;99604.94;113852;1199;64407;-81
2021/03/24 06:13:07;;;;;;;37.90;23.60;;;;;;;4.13;77.81;99603.13;113819;1199;64464;-79
2021/03/24 06:16:02;;;;;;;32.07;23.00;;;;;;;4.15;77.58;99613.61;113888;1200;64413;-81
2021/03/24 06:18:33;;;;;;;33.97;23.70;;;;;;;4.18;77.74;99614.38;113855;1199;64375;-80
2021/03/24 06:21:41;;;;;;;36.67;26.03;;;;;;;4.21;77.84;99608.14;113916;1199;64378;-81
2021/03/24 06:24:36;;;;;;;38.93;26.50;;;;;;;4.23;77.68;99608.95;113957;1200;64413;-82
2021/03/24 06:27:36;;;;;;;35.30;23.83;;;;;;;4.21;77.48;99610.77;113897;1194;64436;-82
2021/03/24 06:30:18;;;;;;;;;;;;;;;4.22;77.57;99617.80;114022;1205;64381;-79
2021/03/24 06:33:10;;;;;;;33.43;23.07;;;;;;;4.24;77.31;99617.73;113950;1196;64445;-80
2021/03/24 06:35:54;;;;;;;33.63;23.67;;;;;;;4.25;77.31;99617.70;114048;1199;64292;-80
2021/03/24 06:38:24;;;;;;;35.93;25.60;;;;;;;4.29;77.28;99616.70;114007;1196;64481;-80
2021/03/24 06:41:06;;;;;;;32.47;23.17;;;;;;;4.32;77.42;99621.88;113983;1196;65391;-83
2021/03/24 06:43:48;;;;;;;33.83;24.07;;;;;;;4.36;77.17;99620.00;113992;1196;64372;-80
2021/03/24 06:46:47;;;;;;;31.90;21.83;;;;;;;4.40;77.21;99619.00;113945;1197;64466;-80
2021/03/24 06:49:56;;;;;;;32.70;23.10;;;;;;;4.42;76.93;99624.22;113872;1200;64337;-79
2021/03/24 06:52:31;;;;;;;32.03;23.40;;;;;;;4.44;76.94;99627.67;113781;1196;64365;-79
2021/03/24 06:55:35;;;;;;;35.70;24.85;;;;;;;4.44;76.82;99625.89;113637;1200;64532;-80
2021/03/24 06:58:02;;;;;;;32.17;24.27;;;;;;;4.45;76.86;99630.28;113810;1200;64503;-80
2021/03/24 07:00:31;;;;;;;33.97;22.13;;;;;;;4.50;76.88;99635.39;113863;1199;64397;-80
2021/03/24 07:03:14;;;;;;;33.80;21.90;;;;;;;4.55;76.67;99636.10;113954;1196;64353;-80
2021/03/24 07:06:08;;;;;;;31.05;24.20;;;;;;;4.62;76.84;99641.14;113883;1200;64401;-80
2021/03/24 07:09:14;;;;;;;29.17;22.83;;;;;;;4.68;76.59;99640.08;113891;1200;64529;-80
2021/03/24 07:11:43;;;;;;;32.83;25.33;;;;;;;4.75;76.52;99638.97;113917;1198;64410;-80
2021/03/24 07:14:15;;;;;;;28.28;22.80;;;;;;;4.78;76.31;99640.64;113965;1198;64379;-81
2021/03/24 07:17:15;;;;;;;29.15;21.70;;;;;;;4.81;75.98;99637.90;113937;1199;64471;-81
2021/03/24 07:19:51;;;;;;;;;;;;;;;4.83;75.57;99647.50;114000;1204;64356;-80
2021/03/24 07:22:45;;;;;;;29.13;21.67;;;;;;;4.86;76.02;99643.89;113890;1196;64433;-80
2021/03/24 07:25:36;;;;;;;34.77;25.47;;;;;;;4.93;75.70;99649.85;113843;1198;64381;-80
2021/03/24 07:28:51;;;;;;;33.27;23.23;;;;;;;4.93;75.43;99652.49;113943;1200;64385;-80
2021/03/24 07:31:39;;;;;;;34.70;22.75;;;;;;;4.96;75.37;99657.67;113727;1199;64365;-81
2021/03/24 07:34:28;;;;;;;35.00;21.97;;;;;;;5.00;75.67;99660.16;113886;1199;64337;-80
2021/03/24 07:37:28;;;;;;;30.97;22.50;;;;;;;5.05;74.89;99667.91;113922;1199;64369;-80
2021/03/24 07:40:15;;;;;;;30.48;21.53;;;;;;;5.06;74.84;99667.02;113862;1199;64481;-79
2021/03/24 07:42:48;;;;;;;34.27;23.73;;;;;;;5.09;75.01;99668.69;113812;1196;64353;-79
2021/03/24 07:45:25;;;;;;;32.35;21.60;;;;;;;5.12;74.91;99673.87;113834;1196;64401;-80
2021/03/24 07:48:02;;;;;;;32.55;22.20;;;;;;;5.16;75.06;99665.79;113646;1200;64356;-81
2021/03/24 07:50:54;;;;;;;29.50;21.23;;;;;;;5.24;74.89;99671.67;113896;1200;64400;-79
2021/03/24 07:53:35;;;;;;;33.53;22.87;;;;;;;5.30;74.43;99667.95;113852;1200;64321;-80
2021/03/24 07:56:30;;;;;;;34.55;23.35;;;;;;;5.37;74.56;99676.52;113889;1200;64410;-80
2021/03/24 07:59:20;;;;;;;38.53;25.67;;;;;;;5.43;74.25;99681.61;113889;1199;64407;-80
2021/03/24 08:02:13;;;;;;;35.13;25.93;;;;;;;5.43;73.92;99678.97;113917;1199;64375;-80
2021/03/24 08:05:11;;;;;;;36.33;24.47;;;;;;;5.45;73.79;99669.17;113910;1200;64493;-80
2021/03/24 08:07:55;;;;;;;35.53;24.83;;;;;;;5.50;74.01;99677.81;113947;1199;64379;-81
2021/03/24 08:10:50;;;;;;;33.80;24.57;;;;;;;5.53;73.19;99675.08;113920;1199;64372;-80
2021/03/24 08:13:17;;;;;;;33.53;24.83;;;;;;;5.55;73.06;99670.58;113873;1197;64302;-79
2021/03/24 08:16:18;;;;;;;34.25;26.10;;;;;;;5.56;73.21;99676.76;113826;1197;64484;-81
2021/03/24 08:18:54;;;;;;;35.80;24.33;;;;;;;5.63;73.23;99679.09;113914;1200;64370;-80
2021/03/24 08:21:35;;;;;;;35.53;25.50;;;;;;;5.69;73.40;99678.91;113909;1199;64378;-80
2021/03/24 08:24:39;;;;;;;41.50;29.47;;;;;;;5.77;72.79;99670.69;113848;1196;64299;-81
2021/03/24 08:27:32;;;;;;;37.97;27.27;;;;;;;5.87;72.56;99669.44;113891;1198;64372;-80
2021/03/24 08:30:19;;;;;;;32.60;21.43;;;;;;;5.93;72.02;99658.66;113694;1199;64382;-79
2021/03/24 08:33:10;;;;;;;32.23;21.13;;;;;;;6.02;71.74;99662.73;113674;1198;64350;-80
2021/03/24 08:36:12;;;;;;;26.25;20.25;;;;;;;6.10;71.42;99662.44;113967;1200;64295;-79
2021/03/24 08:38:51;;;;;;;32.53;23.07;;;;;;;6.25;71.71;99651.27;113862;1200;64378;-80
2021/03/24 08:41:56;;;;;;;33.70;22.78;;;;;;;6.40;71.18;99654.23;113875;1196;64369;-80
2021/03/24 08:44:53;;;;;;;35.55;22.70;;;;;;;6.53;70.81;99651.06;113948;1199;64381;-80
2021/03/24 08:47:25;;;;;;;32.30;23.00;;;;;;;6.63;70.40;99650.67;113845;1200;64349;-80
2021/03/24 08:49:55;;;;;;;31.03;21.87;;;;;;;6.71;70.31;99661.82;113842;1199;64385;-80
2021/03/24 08:52:45;;;;;;;31.90;21.83;;;;;;;6.78;70.38;99658.86;113865;1199;64612;-80
2021/03/24 08:55:40;;;;;;;32.37;21.60;;;;;;;6.97;70.17;99652.80;113978;1200;64362;-80
2021/03/24 08:58:17;;;;;;;28.70;21.23;;;;;;;7.13;69.27;99647.73;113903;1200;64372;-79
2021/03/24 09:01:04;;;;;;;29.97;22.27;;;;;;;7.15;69.10;99649.38;113666;1200;64475;-79
2021/03/24 09:03:48;;;;;;;34.50;23.23;;;;;;;7.20;68.74;99649.20;113874;1199;64414;-79
2021/03/24 09:06:29;;;;;;;25.83;19.47;;;;;;;7.25;68.27;99650.72;113879;1199;64378;-80
2021/03/24 09:09:40;;;;;;;30.60;21.07;;;;;;;7.24;67.45;99649.01;113862;1200;64340;-79
2021/03/24 09:12:20;;;;;;;27.55;20.85;;;;;;;7.32;67.75;99650.45;113673;1196;64573;-79
2021/03/24 09:14:53;;;;;;;;;;;;;;;7.37;67.17;99649.34;113941;1205;64365;-78
2021/03/24 09:17:25;;;;;;;33.90;23.35;;;;;;;7.40;67.23;99645.70;113826;1200;64465;-79
2021/03/24 09:20:23;;;;;;;25.57;19.73;;;;;;;7.47;66.74;99647.98;113825;1199;64697;-79
2021/03/24 09:23:25;;;;;;;29.13;22.10;;;;;;;7.54;66.72;99645.09;113846;1197;64346;-78
2021/03/24 09:26:21;;;;;;;31.70;21.85;;;;;;;7.57;65.87;99644.95;113812;1198;64301;-79
2021/03/24 09:29:25;;;;;;;30.75;22.55;;;;;;;7.61;66.52;99638.56;113854;1200;64394;-79
2021/03/24 09:32:11;;;;;;;26.55;21.35;;;;;;;7.61;65.01;99638.56;113855;1200;64298;-79
2021/03/24 09:34:37;;;;;;;29.03;20.90;;;;;;;7.58;65.24;99636.94;113877;1200;64378;-80
2021/03/24 09:37:12;;;;;;;32.93;21.73;;;;;;;7.56;65.45;99629.98;113855;1199;64299;-79
2021/03/24 09:39:48;;;;;;;33.70;22.60;;;;;;;7.53;66.13;99630.97;113841;1196;64462;-79
2021/03/24 09:42:26;;;;;;;27.10;21.03;;;;;;;7.53;66.10;99625.67;113859;1200;64455;-79
2021/03/24 09:44:53;;;;;;;27.83;19.33;;;;;;;7.58;66.29;99626.33;113915;1199;64397;-79
2021/03/24 09:47:28;;;;;;;28.63;21.33;;;;;;;7.58;64.83;99625.44;113855;1200;64311;-79
2021/03/24 09:50:35;;;;;;;29.60;20.40;;;;;;;7.52;65.32;99623.92;113819;1199;64385;-78
2021/03/24 09:53:22;;;;;;;28.95;20.40;;;;;;;7.53;65.39;99625.67;114092;1196;64368;-79
2021/03/24 09:55:54;;;;;;;45.03;20.17;;;;;;;7.52;65.12;99629.23;114226;1200;64429;-78
2021/03/24 09:58:24;;;;;;;23.57;18.23;;;;;;;7.56;64.32;99628.18;114229;1200;64391;-78
2021/03/24 10:01:19;;;;;;;23.95;18.70;;;;;;;7.62;64.26;99627.04;114088;1200;64384;-79
2021/03/24 10:03:52;;;;;;;24.40;18.07;;;;;;;7.73;64.57;99616.80;113865;1200;64308;-79
2021/03/24 10:06:28;;;;;;;22.37;18.07;;;;;;;7.87;64.41;99619.70;113846;1200;64379;-79
2021/03/24 10:09:19;;;;;;;29.83;22.60;;;;;;;7.98;64.01;99619.20;113837;1200;64420;-79
2021/03/24 10:12:04;;;;;;;29.45;20.95;;;;;;;8.08;63.66;99619.62;113867;1199;64362;-79
2021/03/24 10:15:08;;;;;;;27.40;20.07;;;;;;;8.07;63.64;99618.77;113837;1199;64378;-79
2021/03/24 10:17:51;;;;;;;25.83;19.50;;;;;;;7.98;62.87;99623.63;113853;1200;64372;-79
2021/03/24 10:20:33;;;;;;;24.37;19.50;;;;;;;7.93;63.55;99623.01;113779;1200;64484;-79
2021/03/24 10:23:25;;;;;;;21.17;18.37;;;;;;;7.95;62.61;99621.13;113835;1196;64475;-80
2021/03/24 10:25:59;;;;;;;23.43;18.90;;;;;;;7.91;63.29;99623.92;113871;1200;64535;-80
2021/03/24 10:28:41;;;;;;;23.67;20.40;;;;;;;7.89;63.61;99622.27;113855;1198;64457;-79
2021/03/24 10:31:37;;;;;;;30.07;22.20;;;;;;;7.84;63.72;99627.78;113838;1199;64381;-78
2021/03/24 10:34:45;;;;;;;32.20;21.90;;;;;;;7.81;62.92;99616.45;113873;1197;64465;-79
2021/03/24 10:37:49;;;;;;;26.43;20.77;;;;;;;7.80;63.30;99612.95;113662;1200;64410;-79
2021/03/24 10:40:22;;;;;;;26.55;19.70;;;;;;;7.87;63.36;99617.05;113648;1198;64503;-79
2021/03/24 10:43:13;;;;;;;29.73;19.93;;;;;;;7.90;63.39;99613.39;113651;1200;64362;-79
2021/03/24 10:46:06;;;;;;;27.73;20.47;;;;;;;7.96;63.07;99604.28;113878;1197;64407;-79
2021/03/24 10:49:11;;;;;;;25.73;19.67;;;;;;;7.97;61.58;99608.65;113843;1197;64368;-77
2021/03/24 10:51:53;;;;;;;24.37;20.73;;;;;;;7.96;62.21;99615.75;113808;1196;64346;-79
2021/03/24 10:54:24;;;;;;;27.55;21.60;;;;;;;7.97;62.89;99612.16;113880;1196;64382;-78
2021/03/24 10:57:33;;;;;;;27.30;22.25;;;;;;;7.94;62.06;99604.34;113639;1200;64410;-78
2021/03/24 11:00:17;;;;;;;22.87;19.67;;;;;;;7.85;61.77;99605.64;113841;1196;64468;-78
2021/03/24 11:02:55;;;;;;;29.93;24.50;;;;;;;7.77;62.01;99602.48;113846;1199;64311;-79
2021/03/24 11:05:29;;;;;;;29.07;22.13;;;;;;;7.78;62.23;99590.92;113676;1200;64426;-79
2021/03/24 11:08:24;;;;;;;29.43;23.23;;;;;;;7.75;61.67;99588.41;113849;1197;64378;-80
2021/03/24 11:10:58;;;;;;;23.33;20.50;;;;;;;7.65;62.06;99598.58;113818;1200;64372;-79
2021/03/24 11:13:35;;;;;;;28.50;24.23;;;;;;;7.65;62.33;99593.27;113631;1200;64350;-79
2021/03/24 11:16:07;;;;;;;29.13;23.83;;;;;;;7.68;62.65;99598.42;113890;1200;64356;-79
2021/03/24 11:18:41;;;;;;;26.37;23.47;;;;;;;7.75;62.77;99595.52;113804;1200;64354;-78
2021/03/24 11:21:36;;;;;;;28.00;23.25;;;;;;;7.76;61.99;99598.08;113852;1197;64523;-78
2021/03/24 11:24:25;;;;;;;31.67;24.47;;;;;;;7.76;61.97;99586.61;113872;1200;64366;-80
2021/03/24 11:27:01;;;;;;;31.03;26.83;;;;;;;7.68;62.33;99584.31;113881;1196;64344;-79
2021/03/24 11:29:30;;;;;;;25.63;22.63;;;;;;;7.70;62.54;99585.11;113875;1199;64298;-79
2021/03/24 11:32:17;;;;;;;31.83;23.83;;;;;;;7.71;62.27;99586.81;113898;1196;64298;-81
2021/03/24 11:34:50;;;;;;;31.33;22.93;;;;;;;7.74;62.35;99580.51;114582;1199;64420;-88
2021/03/24 11:37:20;;;;;;;27.03;23.57;;;;;;;7.82;62.59;99584.55;114173;1200;64359;-82
2021/03/24 11:40:04;;;;;;;27.55;23.25;;;;;;;7.91;62.17;99578.80;114334;1199;64446;-86
2021/03/24 11:42:35;;;;;;;28.35;24.15;;;;;;;7.98;62.38;99579.39;114109;1199;64400;-86
2021/03/24 11:45:10;;;;;;;26.50;22.90;;;;;;;8.02;61.77;99578.30;113949;1200;64429;-87
2021/03/24 11:48:01;;;;;;;27.95;21.70;;;;;;;7.99;61.70;99578.45;113961;1199;64500;-82
2021/03/24 11:50:43;;;;;;;25.10;21.67;;;;;;;7.95;62.08;99571.55;113981;1196;64459;-82
2021/03/24 11:53:23;;;;;;;24.67;20.90;;;;;;;7.98;61.59;99567.89;113974;1196;64379;-83
2021/03/24 11:56:12;;;;;;;24.15;20.85;;;;;;;7.98;61.73;99562.58;114042;1197;64455;-84
2021/03/24 11:59:07;;;;;;;27.30;22.67;;;;;;;7.99;61.78;99565.17;113914;1198;64433;-85
2021/03/24 12:01:39;;;;;;;35.30;27.90;;;;;;;7.97;61.46;99566.18;113882;1199;64442;-88
2021/03/24 12:04:31;;;;;;;30.03;24.67;;;;;;;8.00;61.58;99563.38;114067;1196;64403;-83
2021/03/24 12:07:03;;;;;;;31.87;23.60;;;;;;;8.06;61.46;99560.45;113976;1196;64381;-85
2021/03/24 12:09:35;;;;;;;29.97;23.23;;;;;;;8.15;61.40;99557.34;113927;1200;64365;-77
2021/03/24 12:12:12;;;;;;;27.05;21.45;;;;;;;8.24;60.84;99564.00;113908;1196;64403;-76
2021/03/24 12:14:41;;;;;;;29.90;23.75;;;;;;;8.29;60.71;99557.55;113891;1200;64538;-77